Time;durP1;ratioP1;P1;durP2;ratioP2;P2;SDS_P1;SDS_P2;PMS_P1;PMS_P2;Temp;Humidity;BMP_temperature;BMP_pressure;BME280_temperature;BME280_humidity;BME280_pressure;Samples;Min_cycle;Max_cycle;Signal;HPM_P1;HPM_P2
2024/04/10 00:01:06;;;;;;;2.57;1.40;;;11.80;37.00;;;;;;5462277;26;20532;-81
2024/04/10 00:03:36;;;;;;;3.50;1.50;;;11.70;36.80;;;;;;5465400;26;20476;-80
2024/04/10 00:06:05;;;;;;;1.90;1.30;;;11.70;38.50;;;;;;5463701;26;20466;-81
2024/04/10 00:08:36;;;;;;;3.13;1.83;;;11.80;38.40;;;;;;5456184;26;20470;-82
2024/04/10 00:11:04;;;;;;;3.53;1.80;;;11.60;37.60;;;;;;5461217;26;20527;-78
2024/04/10 00:13:37;;;;;;;2.03;1.53;;;11.80;40.30;;;;;;5462435;26;20513;-80
2024/04/10 00:16:07;;;;;;;2.23;1.30;;;11.80;38.10;;;;;;5463511;26;20512;-80
2024/04/10 00:18:38;;;;;;;5.10;1.67;;;11.70;38.10;;;;;;5461462;26;20472;-77
2024/04/10 00:21:05;;;;;;;2.70;1.70;;;11.90;40.70;;;;;;5456231;26;20484;-82
2024/04/10 00:23:36;;;;;;;1.83;1.60;;;12.00;37.70;;;;;;5463908;26;20554;-79
2024/04/10 00:26:04;;;;;;;1.90;1.27;;;11.70;35.40;;;;;;5454562;26;21233;-79
2024/04/10 00:28:35;;;;;;;3.97;2.17;;;11.80;35.80;;;;;;5460254;26;20877;-79
2024/04/10 00:31:08;;;;;;;3.80;1.43;;;11.90;38.80;;;;;;5456928;26;20905;-78
2024/04/10 00:33:39;;;;;;;2.03;1.50;;;11.70;37.50;;;;;;5455500;26;20541;-80
2024/04/10 00:36:08;;;;;;;1.60;1.50;;;11.70;37.80;;;;;;5460773;26;21020;-80
2024/04/10 00:38:38;;;;;;;3.23;1.57;;;11.60;37.30;;;;;;5458154;26;20469;-79
2024/04/10 00:41:06;;;;;;;2.20;1.93;;;11.60;37.60;;;;;;5456265;26;20480;-79
2024/04/10 00:43:38;;;;;;;2.20;1.37;;;11.60;38.00;;;;;;5459780;26;20481;-78
2024/04/10 00:46:14;;;;;;;3.63;1.40;;;11.60;39.40;;;;;;5456051;26;20481;-77
2024/04/10 00:48:45;;;;;;;2.07;1.57;;;11.70;38.80;;;;;;5456306;26;20526;-78
2024/04/10 00:51:16;;;;;;;1.53;1.20;;;11.80;37.70;;;;;;5459363;26;20466;-79
2024/04/10 00:53:46;;;;;;;4.50;1.47;;;11.80;39.30;;;;;;5450434;26;20464;-81
2024/04/10 00:56:14;;;;;;;2.50;1.40;;;11.70;38.50;;;;;;5459731;26;20466;-78
2024/04/10 00:58:45;;;;;;;2.63;1.40;;;11.70;40.20;;;;;;5462475;26;21052;-81
2024/04/10 01:01:15;;;;;;;2.00;1.30;;;11.50;37.50;;;;;;5459890;26;20462;-80
2024/04/10 01:03:45;;;;;;;1.40;1.20;;;11.50;53.40;;;;;;5462897;26;20472;-79
2024/04/10 01:06:13;;;;;;;2.80;1.37;;;11.60;38.70;;;;;;5463348;26;20478;-79
2024/04/10 01:08:43;;;;;;;2.20;2.00;;;11.50;40.60;;;;;;5466691;26;20468;-80
2024/04/10 01:11:10;;;;;;;2.00;1.20;;;11.60;40.40;;;;;;5458116;26;20520;-82
2024/04/10 01:13:41;;;;;;;1.60;1.30;;;11.50;40.40;;;;;;5450758;26;20477;-78
2024/04/10 01:16:08;;;;;;;3.17;1.87;;;11.40;39.60;;;;;;5458043;26;20577;-78
2024/04/10 01:18:41;;;;;;;2.40;1.50;;;11.20;43.80;;;;;;5458477;26;20486;-81
2024/04/10 01:21:08;;;;;;;1.50;1.40;;;11.20;41.50;;;;;;5457100;26;20547;-80
2024/04/10 01:23:41;;;;;;;1.73;1.63;;;11.20;43.50;;;;;;5456291;26;20464;-80
2024/04/10 01:26:08;;;;;;;2.07;1.70;;;11.40;47.00;;;;;;5458375;26;20533;-82
2024/04/10 01:28:38;;;;;;;1.70;1.60;;;11.40;46.50;;;;;;5464054;26;20465;-79
2024/04/10 01:31:05;;;;;;;1.40;1.30;;;11.20;44.90;;;;;;5454024;26;20594;-80
2024/04/10 01:33:35;;;;;;;2.60;1.50;;;11.20;47.40;;;;;;5457084;26;20454;-76
2024/04/10 01:36:07;;;;;;;1.70;1.60;;;11.00;47.00;;;;;;5456194;26;20487;-78
2024/04/10 01:38:39;;;;;;;1.97;1.53;;;11.00;48.40;;;;;;5455973;26;20470;-77
2024/04/10 01:41:09;;;;;;;1.43;1.33;;;11.10;48.40;;;;;;5453768;26;20470;-79
2024/04/10 01:43:39;;;;;;;2.30;1.70;;;11.10;51.40;;;;;;5455513;26;20585;-79
2024/04/10 01:46:07;;;;;;;1.50;1.40;;;11.00;49.30;;;;;;5458141;26;20468;-80
2024/04/10 01:48:36;;;;;;;2.27;1.30;;;11.00;50.20;;;;;;5455095;26;20466;-79
2024/04/10 01:51:04;;;;;;;1.60;1.50;;;11.00;49.40;;;;;;5457232;26;20585;-78
2024/04/10 01:53:35;;;;;;;2.63;1.43;;;10.90;51.20;;;;;;5457757;26;20460;-79
2024/04/10 01:56:02;;;;;;;1.73;1.60;;;11.00;52.60;;;;;;5461623;26;20478;-81
2024/04/10 01:58:35;;;;;;;1.60;1.50;;;11.10;52.20;;;;;;5458303;26;20481;-78
2024/04/10 02:01:03;;;;;;;1.50;1.40;;;11.00;52.80;;;;;;5450795;26;20484;-78
2024/04/10 02:03:33;;;;;;;1.50;1.40;;;11.10;51.20;;;;;;5453822;26;20480;-77
2024/04/10 02:06:01;;;;;;;1.40;1.30;;;11.10;51.20;;;;;;5479878;26;20514;-76
2024/04/10 02:08:31;;;;;;;1.50;1.40;;;11.10;53.50;;;;;;5460967;26;20478;-79
2024/04/10 02:11:00;;;;;;;1.93;1.83;;;10.90;52.00;;;;;;5460160;26;20469;-78
2024/04/10 02:13:30;;;;;;;1.40;1.30;;;10.90;52.10;;;;;;5455481;26;20463;-81
2024/04/10 02:16:00;;;;;;;4.27;1.37;;;10.90;52.10;;;;;;5463123;26;21101;-80
2024/04/10 02:18:30;;;;;;;1.50;1.40;;;10.70;53.50;;;;;;5460059;26;20465;-80
2024/04/10 02:20:59;;;;;;;1.70;1.60;;;10.80;58.20;;;;;;5458407;26;20471;-80
2024/04/10 02:23:33;;;;;;;2.17;1.43;;;10.90;57.00;;;;;;5459183;26;20559;-80
2024/04/10 02:26:08;;;;;;;1.93;1.80;;;10.80;57.10;;;;;;5462495;26;20476;-79
2024/04/10 02:28:38;;;;;;;4.13;1.80;;;10.80;59.40;;;;;;5462811;26;20522;-77
2024/04/10 02:31:08;;;;;;;1.97;1.50;;;10.90;78.00;;;;;;5458122;26;20542;-79
2024/04/10 02:33:39;;;;;;;1.50;1.40;;;10.90;57.30;;;;;;5462011;26;20528;-80
2024/04/10 02:36:08;;;;;;;1.70;1.60;;;10.80;56.80;;;;;;5462746;26;20515;-81
2024/04/10 02:38:38;;;;;;;1.27;1.17;;;10.90;57.70;;;;;;5462416;26;20471;-76
2024/04/10 02:41:07;;;;;;;1.63;1.40;;;10.70;57.00;;;;;;5465455;26;21011;-84
2024/04/10 02:43:37;;;;;;;1.27;1.17;;;10.80;59.10;;;;;;5460393;26;20470;-84
2024/04/10 02:46:07;;;;;;;1.50;1.40;;;10.80;59.00;;;;;;5459861;26;20544;-81
2024/04/10 02:48:37;;;;;;;1.40;1.30;;;10.70;59.40;;;;;;5466030;26;20477;-79
2024/04/10 02:51:06;;;;;;;1.97;1.53;;;10.70;59.70;;;;;;5461048;26;20471;-79
2024/04/10 02:53:36;;;;;;;1.53;1.27;;;10.70;60.00;;;;;;5463179;26;21307;-79
2024/04/10 02:56:04;;;;;;;2.77;1.43;;;10.70;59.90;;;;;;5462504;26;20466;-80
2024/04/10 02:58:35;;;;;;;1.70;1.40;;;10.60;61.10;;;;;;5462171;26;20521;-81
2024/04/10 03:01:02;;;;;;;3.57;1.30;;;10.60;61.70;;;;;;5463100;26;20532;-80
2024/04/10 03:03:35;;;;;;;1.70;1.40;;;10.70;62.80;;;;;;5456612;26;20462;-81
2024/04/10 03:06:04;;;;;;;1.70;1.27;;;10.70;61.30;;;;;;5460866;26;20630;-81
2024/04/10 03:08:34;;;;;;;1.53;1.43;;;10.70;60.70;;;;;;5456522;26;20577;-80
2024/04/10 03:11:04;;;;;;;2.17;1.50;;;10.60;59.80;;;;;;5461195;26;20781;-79
2024/04/10 03:13:35;;;;;;;2.77;1.70;;;10.60;60.20;;;;;;5459226;26;20471;-81
2024/04/10 03:16:02;;;;;;;1.63;1.53;;;10.50;61.40;;;;;;5458781;26;20878;-78
2024/04/10 03:18:35;;;;;;;1.57;1.47;;;10.50;63.10;;;;;;5466136;26;20467;-80
2024/04/10 03:21:03;;;;;;;1.63;1.53;;;10.40;64.40;;;;;;5460996;26;20471;-80
2024/04/10 03:23:33;;;;;;;2.07;1.70;;;10.40;61.80;;;;;;5456575;26;21047;-79
2024/04/10 03:26:04;;;;;;;1.40;1.30;;;10.30;84.20;;;;;;5458697;26;20463;-81
2024/04/10 03:28:35;;;;;;;2.20;1.30;;;10.30;69.40;;;;;;5461648;26;20491;-82
2024/04/10 03:31:05;;;;;;;1.53;1.43;;;10.30;70.30;;;;;;5460738;26;20480;-79
2024/04/10 03:33:38;;;;;;;1.70;1.60;;;10.30;71.20;;;;;;5462624;26;20475;-81
2024/04/10 03:36:06;;;;;;;1.43;1.27;;;10.30;69.60;;;;;;5461227;26;20522;-77
2024/04/10 03:38:36;;;;;;;2.07;1.50;;;10.30;66.20;;;;;;5465120;26;20503;-80
2024/04/10 03:41:03;;;;;;;3.00;1.50;;;10.30;68.30;;;;;;5463975;26;20586;-80
2024/04/10 03:43:33;;;;;;;3.53;1.50;;;10.30;69.70;;;;;;5456795;26;20887;-80
2024/04/10 03:46:04;;;;;;;1.60;1.50;;;10.20;70.60;;;;;;5462346;26;20878;-81
2024/04/10 03:48:34;;;;;;;2.27;2.07;;;10.20;68.10;;;;;;5461837;26;20536;-80
2024/04/10 03:51:05;;;;;;;1.50;1.40;;;10.20;69.90;;;;;;5462516;26;20476;-77
2024/04/10 03:53:33;;;;;;;1.50;1.40;;;10.20;72.00;;;;;;5461657;26;20545;-81
2024/04/10 03:56:03;;;;;;;4.20;1.50;;;10.10;71.40;;;;;;5460132;26;20572;-82
2024/04/10 03:58:33;;;;;;;1.73;1.53;;;10.10;71.30;;;;;;5460447;26;20530;-80
2024/04/10 04:01:00;;;;;;;1.40;1.30;;;10.00;73.90;;;;;;5458297;26;20509;-79
2024/04/10 04:03:33;;;;;;;3.53;1.70;;;10.00;79.60;;;;;;5457176;26;20537;-79
2024/04/10 04:06:05;;;;;;;1.87;1.40;;;10.10;83.60;;;;;;5457984;26;20475;-79
2024/04/10 04:08:35;;;;;;;1.63;1.30;;;10.10;85.80;;;;;;5458157;26;20471;-79
2024/04/10 04:11:04;;;;;;;4.10;1.73;;;10.20;84.40;;;;;;5457798;26;21131;-79
2024/04/10 04:13:37;;;;;;;6.00;1.70;;;10.20;83.60;;;;;;5465699;26;20873;-78
2024/04/10 04:16:06;;;;;;;3.57;1.40;;;10.20;81.00;;;;;;5455909;26;20467;-78
2024/04/10 04:18:37;;;;;;;4.83;1.77;;;10.20;78.70;;;;;;5462898;26;20449;-80
2024/04/10 04:21:07;;;;;;;2.00;1.40;;;10.00;76.60;;;;;;5456850;26;20583;-76
2024/04/10 04:23:37;;;;;;;2.50;2.27;;;9.90;81.30;;;;;;5461857;26;20485;-80
2024/04/10 04:26:05;;;;;;;2.20;1.53;;;10.00;84.50;;;;;;5450629;26;20520;-78
2024/04/10 04:28:35;;;;;;;1.63;1.50;;;10.00;84.00;;;;;;5451205;26;20489;-79
2024/04/10 04:31:05;;;;;;;1.93;1.70;;;10.00;85.60;;;;;;5454539;26;20904;-79
2024/04/10 04:33:32;;;;;;;2.40;1.40;;;10.10;85.10;;;;;;5456438;26;20590;-79
2024/04/10 04:36:02;;;;;;;3.37;1.50;;;10.00;85.50;;;;;;5456001;26;20448;-79
2024/04/10 04:38:32;;;;;;;6.03;1.73;;;10.00;87.40;;;;;;5457912;26;20459;-80
2024/04/10 04:41:02;;;;;;;3.03;1.77;;;9.90;87.40;;;;;;5457106;26;20535;-82
2024/04/10 04:43:30;;;;;;;2.07;1.87;;;10.00;88.50;;;;;;5452512;26;20474;-80
2024/04/10 04:46:00;;;;;;;2.03;1.67;;;9.90;91.30;;;;;;5457328;26;20869;-79
2024/04/10 04:48:28;;;;;;;1.47;1.30;;;10.00;90.80;;;;;;5457676;26;20552;-78
2024/04/10 04:50:58;;;;;;;1.50;1.40;;;9.90;90.80;;;;;;5456301;26;20889;-79
2024/04/10 04:53:25;;;;;;;1.90;1.50;;;9.90;93.60;;;;;;5456738;26;20480;-77
2024/04/10 04:55:59;;;;;;;2.43;1.50;;;9.90;92.40;;;;;;5458656;26;20470;-80
2024/04/10 04:58:27;;;;;;;2.80;1.73;;;9.90;96.20;;;;;;5459937;26;20470;-78
2024/04/10 05:01:01;;;;;;;1.60;1.50;;;9.90;94.50;;;;;;5456154;26;20460;-82
2024/04/10 05:06:16;;;;;;;3.33;2.13;;;9.90;94.40;;;;;;5458856;26;20523;-77
2024/04/10 05:08:51;;;;;;;3.83;2.07;;;10.00;95.80;;;;;;5453395;26;20465;-78
2024/04/10 05:11:21;;;;;;;4.50;1.90;;;10.00;95.60;;;;;;5459003;26;20524;-76
2024/04/10 05:13:51;;;;;;;1.73;1.63;;;10.10;92.00;;;;;;5459321;26;20472;-76
2024/04/10 05:16:18;;;;;;;8.10;1.70;;;10.10;93.20;;;;;;5452209;26;20470;-77
2024/04/10 05:18:48;;;;;;;3.33;1.60;;;10.00;95.50;;;;;;5454856;26;20457;-78
2024/04/10 05:21:16;;;;;;;2.70;1.60;;;10.10;92.30;;;;;;5450999;26;20540;-77
2024/04/10 05:23:46;;;;;;;7.93;2.37;;;10.10;94.10;;;;;;5455032;26;20472;-79
2024/04/10 05:26:14;;;;;;;1.80;1.60;;;10.10;93.70;;;;;;5458882;26;20510;-78
2024/04/10 05:28:47;;;;;;;3.33;1.97;;;10.10;91.00;;;;;;5460242;26;20819;-79
2024/04/10 05:31:14;;;;;;;4.20;2.20;;;10.20;92.90;;;;;;5455583;26;20482;-78
2024/04/10 05:33:44;;;;;;;3.73;1.70;;;10.10;92.30;;;;;;5456922;26;20509;-79
2024/04/10 05:36:12;;;;;;;2.40;1.63;;;10.10;93.00;;;;;;5457054;26;20511;-78
2024/04/10 05:38:41;;;;;;;2.40;2.10;;;10.10;93.80;;;;;;5456452;26;20468;-77
2024/04/10 05:41:09;;;;;;;2.47;1.80;;;10.20;92.60;;;;;;5464000;26;20479;-79
2024/04/10 05:43:41;;;;;;;8.10;2.13;;;10.30;91.40;;;;;;5466274;26;20538;-79
2024/04/10 05:46:11;;;;;;;7.53;1.77;;;10.20;90.60;;;;;;5460045;26;20568;-78
2024/04/10 05:48:41;;;;;;;4.13;1.80;;;10.20;82.70;;;;;;5460419;26;20488;-78
2024/04/10 05:51:09;;;;;;;3.27;1.50;;;10.30;84.10;;;;;;5457030;26;20463;-79
2024/04/10 05:53:39;;;;;;;3.03;1.60;;;10.30;84.30;;;;;;5464707;26;20507;-82
2024/04/10 05:56:06;;;;;;;3.63;1.73;;;10.30;82.60;;;;;;5463301;26;20797;-79
2024/04/10 05:58:38;;;;;;;3.33;2.53;;;10.40;80.20;;;;;;5464083;26;20471;-77
2024/04/10 06:01:07;;;;;;;3.53;1.60;;;10.40;77.60;;;;;;5460116;26;20538;-78
2024/04/10 06:03:39;;;;;;;2.50;1.70;;;10.50;76.00;;;;;;5460819;26;20477;-78
2024/04/10 06:06:08;;;;;;;2.70;1.33;;;10.40;71.50;;;;;;5464215;26;20604;-77
2024/04/10 06:08:39;;;;;;;9.00;2.10;;;10.40;71.90;;;;;;5457900;26;20460;-80
2024/04/10 06:11:06;;;;;;;1.50;1.40;;;10.40;87.40;;;;;;5464973;26;20593;-79
2024/04/10 06:13:36;;;;;;;2.90;1.97;;;10.40;75.00;;;;;;5462544;26;20475;-79
2024/04/10 06:16:05;;;;;;;3.03;2.13;;;10.50;74.70;;;;;;5467727;26;20591;-80
2024/04/10 06:18:39;;;;;;;1.60;1.50;;;10.50;72.70;;;;;;5463211;26;20525;-78
2024/04/10 06:21:07;;;;;;;2.13;1.43;;;10.40;67.00;;;;;;5462828;26;20478;-81
2024/04/10 06:23:37;;;;;;;2.93;1.50;;;10.50;72.20;;;;;;5462938;26;21015;-77
2024/04/10 06:26:05;;;;;;;4.20;1.50;;;10.50;72.00;;;;;;5461477;26;20549;-80
2024/04/10 06:28:35;;;;;;;6.03;1.60;;;10.60;68.50;;;;;;5463944;26;21030;-77
2024/04/10 06:31:04;;;;;;;6.03;1.50;;;10.60;67.60;;;;;;5462082;26;20487;-79
2024/04/10 06:33:34;;;;;;;3.37;1.90;;;10.60;87.00;;;;;;5461297;26;20485;-79
2024/04/10 06:36:04;;;;;;;3.93;1.70;;;10.70;73.60;;;;;;5464474;26;20466;-79
2024/04/10 06:38:37;;;;;;;3.50;2.07;;;10.70;69.30;;;;;;5458108;26;20573;-77
2024/04/10 06:41:05;;;;;;;5.43;2.57;;;10.70;69.60;;;;;;5462979;26;20486;-77
2024/04/10 06:43:35;;;;;;;4.63;2.50;;;10.80;66.70;;;;;;5466654;26;20871;-78
2024/04/10 06:46:05;;;;;;;6.03;1.70;;;10.80;64.50;;;;;;5456399;26;20468;-78
2024/04/10 06:48:35;;;;;;;5.03;1.80;;;10.80;64.70;;;;;;5459871;26;20470;-78
2024/04/10 06:51:06;;;;;;;5.17;1.87;;;10.80;59.90;;;;;;5456739;26;21151;-76
2024/04/10 06:53:37;;;;;;;2.43;2.23;;;10.90;63.80;;;;;;5457547;26;20472;-80
2024/04/10 06:56:06;;;;;;;6.27;2.47;;;11.00;61.40;;;;;;5462136;26;20574;-76
2024/04/10 06:58:36;;;;;;;10.37;2.57;;;11.10;59.20;;;;;;5466736;26;20588;-79
2024/04/10 07:01:05;;;;;;;6.33;2.20;;;11.10;60.90;;;;;;5456957;26;20467;-78
2024/04/10 07:03:37;;;;;;;7.67;1.90;;;11.10;60.00;;;;;;5462064;26;20581;-78
2024/04/10 07:06:09;;;;;;;5.30;2.00;;;11.20;60.20;;;;;;5459859;26;20486;-78
2024/04/10 07:08:42;;;;;;;3.93;1.70;;;11.20;58.50;;;;;;5461786;26;20475;-78
2024/04/10 07:11:20;;;;;;;5.17;1.70;;;11.20;57.10;;;;;;5458816;26;20517;-78
2024/04/10 07:13:49;;;;;;;5.93;1.97;;;11.30;57.50;;;;;;5467502;26;20471;-77
2024/04/10 07:16:19;;;;;;;6.03;1.70;;;11.30;56.50;;;;;;5458714;26;21147;-79
2024/04/10 07:18:47;;;;;;;3.60;1.90;;;11.40;55.70;;;;;;5460208;26;20456;-77
2024/04/10 07:21:20;;;;;;;3.77;1.80;;;11.40;53.60;;;;;;5458753;26;21173;-78
2024/04/10 07:23:49;;;;;;;3.60;2.23;;;11.40;54.20;;;;;;5461023;26;20527;-78
2024/04/10 07:26:20;;;;;;;5.07;1.87;;;11.50;53.80;;;;;;5460089;26;20520;-78
2024/04/10 07:28:51;;;;;;;4.70;2.10;;;11.50;51.20;;;;;;5455603;26;20453;-78
2024/04/10 07:31:28;;;;;;;3.03;1.53;;;11.50;51.60;;;;;;5454902;26;21124;-78
2024/04/10 07:33:56;;;;;;;4.23;2.00;;;11.60;52.50;;;;;;5459602;26;20463;-76
2024/04/10 07:36:30;;;;;;;6.20;1.53;;;11.50;51.90;;;;;;5458800;26;20523;-79
2024/04/10 07:39:00;;;;;;;6.73;1.93;;;11.60;51.40;;;;;;5459869;26;20506;-79
2024/04/10 07:41:30;;;;;;;5.43;1.73;;;11.70;51.40;;;;;;5457234;26;20474;-78
2024/04/10 07:43:57;;;;;;;4.27;1.80;;;11.60;49.80;;;;;;5460591;26;20473;-78
2024/04/10 07:46:27;;;;;;;5.60;2.17;;;11.60;51.30;;;;;;5456827;26;21039;-77
2024/04/10 07:48:55;;;;;;;4.60;1.57;;;11.60;51.10;;;;;;5457108;26;20588;-78
2024/04/10 07:51:27;;;;;;;4.27;2.30;;;11.70;51.80;;;;;;5457381;26;21428;-78
2024/04/10 07:53:58;;;;;;;8.40;2.00;;;11.80;53.00;;;;;;5455738;26;21083;-75
2024/04/10 07:56:29;;;;;;;5.37;2.37;;;11.80;53.00;;;;;;5459368;26;20492;-79
2024/04/10 07:58:56;;;;;;;4.97;2.33;;;11.90;51.20;;;;;;5458663;26;20591;-78
2024/04/10 08:01:26;;;;;;;5.90;2.00;;;12.00;52.40;;;;;;5458100;26;20536;-80
2024/04/10 08:03:55;;;;;;;5.83;1.87;;;12.10;50.50;;;;;;5456379;26;20526;-79
2024/04/10 08:06:25;;;;;;;5.67;1.80;;;12.10;48.40;;;;;;5455643;26;20513;-76
2024/04/10 08:08:52;;;;;;;6.60;3.13;;;12.20;51.10;;;;;;5460997;26;20461;-78
2024/04/10 08:11:27;;;;;;;4.70;1.57;;;12.40;51.70;;;;;;5457520;26;20521;-78
2024/04/10 08:13:55;;;;;;;5.00;1.93;;;12.50;54.90;;;;;;5459064;26;20752;-77
2024/04/10 08:16:25;;;;;;;6.57;1.90;;;12.70;52.40;;;;;;5454671;26;20513;-79
2024/04/10 08:18:52;;;;;;;7.77;2.27;;;12.70;54.50;;;;;;5458815;26;20576;-76
2024/04/10 08:21:22;;;;;;;3.27;1.93;;;12.70;54.70;;;;;;5459378;26;20472;-78
2024/04/10 08:23:50;;;;;;;13.50;1.80;;;12.90;55.50;;;;;;5459789;26;20472;-75
2024/04/10 08:26:21;;;;;;;7.33;1.80;;;12.90;49.80;;;;;;5459814;26;20461;-79
2024/04/10 08:28:52;;;;;;;7.33;2.00;;;13.00;55.20;;;;;;5459179;26;21418;-76
2024/04/10 08:31:27;;;;;;;2.47;1.73;;;13.10;54.20;;;;;;5459845;26;20482;-79
2024/04/10 08:33:55;;;;;;;2.50;1.93;;;13.20;54.80;;;;;;5456510;26;20590;-77
2024/04/10 08:36:27;;;;;;;6.53;1.60;;;13.30;52.40;;;;;;5459921;26;20471;-77
2024/04/10 08:38:55;;;;;;;3.67;1.67;;;13.30;47.70;;;;;;5459616;26;20527;-78
2024/04/10 08:41:25;;;;;;;2.63;1.57;;;13.20;46.90;;;;;;5458595;26;20474;-78
2024/04/10 08:43:56;;;;;;;4.90;1.70;;;13.30;47.70;;;;;;5459013;26;20586;-77
2024/04/10 08:46:28;;;;;;;6.07;1.87;;;13.40;49.30;;;;;;5461366;26;21109;-74
2024/04/10 08:48:59;;;;;;;8.07;2.03;;;13.60;48.70;;;;;;5456647;26;20473;-76
2024/04/10 08:51:29;;;;;;;4.70;1.70;;;13.70;46.80;;;;;;5465144;26;20519;-75
2024/04/10 08:53:58;;;;;;;5.57;1.97;;;13.60;42.60;;;;;;5461553;26;20537;-75
2024/04/10 08:56:28;;;;;;;5.90;2.00;;;13.60;40.90;;;;;;5461010;26;20534;-76
2024/04/10 08:58:58;;;;;;;8.23;2.40;;;13.70;39.90;;;;;;5455029;26;20477;-75
2024/04/10 09:01:30;;;;;;;2.97;1.50;;;13.90;43.10;;;;;;5460304;26;20478;-79
2024/04/10 09:04:03;;;;;;;2.93;1.80;;;14.00;41.60;;;;;;5461908;26;20545;-78
2024/04/10 09:06:33;;;;;;;6.93;1.80;;;14.00;40.60;;;;;;5457342;26;20486;-78
2024/04/10 09:09:05;;;;;;;4.10;1.87;;;14.00;41.20;;;;;;5460468;26;20462;-75
2024/04/10 09:11:37;;;;;;;3.43;1.73;;;14.10;43.10;;;;;;5465923;26;20478;-73
2024/04/10 09:14:10;;;;;;;5.60;2.40;;;14.30;43.90;;;;;;5461641;26;20546;-77
2024/04/10 09:16:41;;;;;;;3.33;1.60;;;14.30;40.50;;;;;;5462830;26;20541;-77
2024/04/10 09:19:10;;;;;;;2.67;1.47;;;14.30;38.00;;;;;;5457063;26;20461;-74
2024/04/10 09:21:40;;;;;;;6.40;1.97;;;14.30;39.20;;;;;;5461985;26;20459;-74
2024/04/10 09:24:08;;;;;;;5.10;1.93;;;14.40;36.50;;;;;;5462976;26;20528;-78
2024/04/10 09:26:41;;;;;;;8.47;2.07;;;14.40;35.00;;;;;;5463628;26;21260;-76
2024/04/10 09:29:12;;;;;;;3.80;1.63;;;14.40;38.10;;;;;;5456802;26;20519;-78
2024/04/10 09:31:46;;;;;;;6.47;1.60;;;14.50;36.60;;;;;;5465724;26;20468;-75
2024/04/10 09:34:17;;;;;;;3.53;1.57;;;14.40;30.90;;;;;;5458117;26;20471;-79
2024/04/10 09:36:49;;;;;;;3.77;1.90;;;14.50;32.20;;;;;;5461229;26;21067;-78
2024/04/10 09:39:22;;;;;;;2.07;1.20;;;14.60;48.30;;;;;;5461506;26;20823;-77
2024/04/10 09:41:58;;;;;;;2.10;1.50;;;14.50;31.60;;;;;;5459931;26;20521;-76
2024/04/10 09:44:31;;;;;;;5.03;1.53;;;14.70;34.60;;;;;;5460933;26;20939;-78
2024/04/10 09:47:03;;;;;;;3.13;1.67;;;14.80;41.20;;;;;;5458027;26;21715;-77
2024/04/10 09:49:45;;;;;;;3.03;1.30;;;14.80;35.00;;;;;;5452815;26;20572;-77
2024/04/10 09:52:18;;;;;;;4.53;1.67;;;14.90;33.40;;;;;;5456353;26;20578;-77
2024/04/10 09:54:48;;;;;;;2.90;1.60;;;14.80;32.80;;;;;;5460287;26;20753;-75
2024/04/10 09:57:19;;;;;;;5.10;1.60;;;14.80;31.20;;;;;;5460164;26;21113;-75
2024/04/10 09:59:49;;;;;;;3.90;1.83;;;14.70;27.30;;;;;;5461045;26;21131;-76
2024/04/10 10:02:20;;;;;;;2.50;1.90;;;14.70;41.40;;;;;;5452608;26;20534;-75
2024/04/10 10:04:48;;;;;;;5.13;1.70;;;14.70;27.30;;;;;;5455189;26;20591;-74
2024/04/10 10:07:25;;;;;;;4.37;1.70;;;14.60;25.10;;;;;;5462981;26;20473;-77
2024/04/10 10:10:03;;;;;;;1.80;1.50;;;14.70;25.30;;;;;;5457315;26;20512;-78
2024/04/10 10:12:34;;;;;;;3.10;1.30;;;14.90;27.10;;;;;;5458883;26;21019;-77
2024/04/10 10:15:13;;;;;;;2.07;1.50;;;14.90;25.70;;;;;;5451826;26;20464;-76
2024/04/10 10:17:44;;;;;;;2.20;1.37;;;14.90;24.40;;;;;;5465022;26;21030;-78
2024/04/10 10:20:26;;;;;;;1.83;1.30;;;14.80;23.00;;;;;;5450759;26;20522;-78
2024/04/10 10:23:01;;;;;;;3.23;1.47;;;14.90;23.20;;;;;;5455912;26;20530;-78
2024/04/10 10:25:28;;;;;;;3.40;1.70;;;15.00;29.30;;;;;;5460920;26;20476;-75
2024/04/10 10:28:12;;;;;;;2.60;1.57;;;15.10;30.30;;;;;;5465013;26;21294;-74
2024/04/10 10:30:42;;;;;;;3.10;1.90;;;15.20;32.10;;;;;;5460821;26;20530;-79
2024/04/10 10:33:15;;;;;;;3.30;1.50;;;15.30;32.60;;;;;;5464118;26;20472;-77
2024/04/10 10:35:42;;;;;;;2.97;1.33;;;15.40;34.00;;;;;;5458269;26;20474;-78
2024/04/10 10:38:13;;;;;;;1.50;1.40;;;15.50;32.80;;;;;;5454699;26;20474;-79
2024/04/10 10:40:40;;;;;;;2.83;1.67;;;15.50;30.70;;;;;;5466351;26;21072;-77
2024/04/10 10:43:11;;;;;;;2.80;1.33;;;15.60;31.70;;;;;;5465375;26;20459;-79
2024/04/10 10:45:42;;;;;;;4.30;1.60;;;15.70;31.50;;;;;;5463600;26;20464;-79
2024/04/10 10:48:17;;;;;;;3.67;1.60;;;15.70;31.90;;;;;;5463201;26;20515;-80
2024/04/10 10:50:52;;;;;;;3.30;1.60;;;15.70;28.90;;;;;;5458788;26;20457;-78
2024/04/10 10:53:23;;;;;;;1.47;1.20;;;15.60;27.00;;;;;;5458088;26;21091;-79
2024/04/10 10:55:51;;;;;;;1.93;1.40;;;15.60;27.00;;;;;;5461863;26;20556;-77
2024/04/10 10:58:20;;;;;;;3.20;1.43;;;15.60;26.20;;;;;;5461823;26;20522;-79
2024/04/10 11:00:51;;;;;;;3.43;1.60;;;15.60;25.50;;;;;;5461746;26;20997;-79
2024/04/10 11:03:21;;;;;;;1.70;1.30;;;15.60;24.60;;;;;;5460272;26;20523;-77
2024/04/10 11:06:06;;;;;;;1.60;1.47;;;15.50;23.60;;;;;;5463225;26;20534;-76
2024/04/10 11:08:38;;;;;;;2.40;1.40;;;15.50;24.40;;;;;;5467662;26;20527;-77
2024/04/10 11:11:06;;;;;;;3.93;2.30;;;15.60;24.80;;;;;;5464805;26;21160;-77
2024/04/10 11:13:49;;;;;;;1.90;1.30;;;15.70;26.90;;;;;;5461471;26;20530;-79
2024/04/10 11:16:31;;;;;;;3.03;1.40;;;15.80;26.50;;;;;;5476276;26;20475;-79
2024/04/10 11:19:03;;;;;;;1.90;1.27;;;15.80;26.00;;;;;;5465604;26;21635;-78
2024/04/10 11:21:32;;;;;;;1.77;1.30;;;15.90;26.80;;;;;;5463598;26;20471;-82
2024/04/10 11:24:04;;;;;;;3.10;1.20;;;15.70;25.70;;;;;;5462959;26;21114;-78
2024/04/10 11:26:31;;;;;;;3.20;1.23;;;15.80;26.10;;;;;;5462466;26;20476;-75
2024/04/10 11:29:02;;;;;;;4.43;1.63;;;15.90;27.90;;;;;;5458509;26;21204;-77
2024/04/10 11:31:32;;;;;;;2.07;1.10;;;16.00;28.00;;;;;;5458609;26;20470;-76
2024/04/10 11:34:02;;;;;;;3.23;1.50;;;16.00;26.60;;;;;;5454281;26;21194;-77
2024/04/10 11:36:29;;;;;;;3.07;1.20;;;16.10;26.40;;;;;;5452941;26;20904;-79
2024/04/10 11:39:00;;;;;;;3.33;1.40;;;16.10;27.90;;;;;;5458334;26;20594;-79
2024/04/10 11:41:28;;;;;;;3.23;1.63;;;16.20;28.80;;;;;;5463815;26;21180;-78
2024/04/10 11:43:58;;;;;;;2.80;1.20;;;16.20;28.60;;;;;;5461847;26;20472;-78
2024/04/10 11:46:25;;;;;;;1.50;1.40;;;16.20;42.10;;;;;;5462747;26;20824;-78
2024/04/10 11:48:57;;;;;;;2.27;1.40;;;16.20;39.70;;;;;;5463746;26;20483;-80
2024/04/10 11:51:25;;;;;;;3.57;1.47;;;16.10;26.20;;;;;;5460271;26;21116;-80
2024/04/10 11:53:55;;;;;;;1.97;1.30;;;16.00;25.60;;;;;;5464488;26;20550;-78
2024/04/10 11:56:24;;;;;;;2.23;1.33;;;15.80;22.10;;;;;;5459046;26;21265;-81
2024/04/10 11:58:54;;;;;;;2.50;1.57;;;15.80;21.60;;;;;;5462402;26;20478;-79
2024/04/10 12:01:22;;;;;;;2.60;1.20;;;15.80;24.20;;;;;;5461150;26;20462;-78
2024/04/10 12:03:52;;;;;;;3.17;1.60;;;16.00;23.30;;;;;;5462111;26;20467;-80
2024/04/10 12:06:23;;;;;;;2.60;1.33;;;16.00;25.30;;;;;;5458725;26;20490;-77
2024/04/10 12:08:53;;;;;;;3.20;1.33;;;16.10;24.80;;;;;;5463091;26;20470;-76
2024/04/10 12:11:21;;;;;;;4.30;1.60;;;16.10;24.60;;;;;;5458992;26;21168;-80
2024/04/10 12:13:51;;;;;;;1.30;1.20;;;16.30;26.80;;;;;;5455713;26;20471;-77
2024/04/10 12:16:18;;;;;;;4.20;1.30;;;16.30;27.10;;;;;;5457747;26;20476;-76
2024/04/10 12:18:48;;;;;;;4.10;1.20;;;16.30;28.70;;;;;;5461917;26;20510;-80
2024/04/10 12:21:15;;;;;;;3.77;1.50;;;16.40;28.80;;;;;;5462689;26;20598;-77
2024/04/10 12:23:48;;;;;;;1.57;1.23;;;16.40;28.40;;;;;;5456000;26;20520;-78
2024/04/10 12:26:16;;;;;;;1.40;1.30;;;16.40;28.10;;;;;;5454986;26;20512;-78
2024/04/10 12:28:47;;;;;;;1.97;1.40;;;16.40;27.00;;;;;;5459915;26;20469;-75
2024/04/10 12:31:15;;;;;;;2.10;1.63;;;16.40;27.10;;;;;;5458523;26;20513;-77
2024/04/10 12:33:45;;;;;;;4.07;1.60;;;16.40;27.30;;;;;;5466072;26;20476;-78
2024/04/10 12:39:04;;;;;;;2.73;1.20;;;16.30;26.30;;;;;;5455463;26;20479;-78
2024/04/10 12:41:34;;;;;;;1.93;1.60;;;16.20;25.40;;;;;;5461648;26;20469;-80
2024/04/10 12:44:02;;;;;;;1.63;1.40;;;16.20;24.60;;;;;;5463599;26;20541;-77
2024/04/10 12:46:39;;;;;;;3.77;1.30;;;16.10;22.90;;;;;;5467704;26;20530;-78
2024/04/10 12:49:06;;;;;;;4.50;1.50;;;16.00;22.20;;;;;;5459091;26;20504;-80
2024/04/10 12:51:37;;;;;;;2.10;1.20;;;16.00;22.80;;;;;;5458404;26;20484;-80
2024/04/10 12:54:07;;;;;;;3.07;1.50;;;16.00;23.20;;;;;;5452688;26;20530;-81
2024/04/10 12:56:37;;;;;;;3.70;1.67;;;16.00;23.50;;;;;;5459288;26;20456;-79
2024/04/10 12:59:05;;;;;;;2.20;1.67;;;16.00;24.30;;;;;;5460256;26;20468;-79
2024/04/10 13:01:35;;;;;;;4.13;1.70;;;16.00;24.00;;;;;;5460138;26;21539;-76
2024/04/10 13:04:03;;;;;;;4.73;1.57;;;16.00;23.60;;;;;;5464970;26;20462;-78
2024/04/10 13:06:34;;;;;;;1.43;1.20;;;16.00;22.80;;;;;;5456738;26;20942;-79
2024/04/10 13:09:08;;;;;;;1.43;1.20;;;15.90;21.20;;;;;;5455986;26;20509;-80